sensor_id;sensor_type;location;lat;lon;timestamp;temperature;humidity
1359;DHT22;673;48.098;14.422;2022-11-20T00:01:29;0.20;99.90
1359;DHT22;673;48.098;14.422;2022-11-20T00:03:57;0.10;99.90
1359;DHT22;673;48.098;14.422;2022-11-20T00:06:25;0.10;99.90
1359;DHT22;673;48.098;14.422;2022-11-20T00:08:54;0.10;99.90
1359;DHT22;673;48.098;14.422;2022-11-20T00:11:24;0.20;99.90
1359;DHT22;673;48.098;14.422;2022-11-20T00:13:53;0.10;99.90
1359;DHT22;673;48.098;14.422;2022-11-20T00:16:22;0.10;99.90
1359;DHT22;673;48.098;14.422;2022-11-20T00:18:49;0.10;99.90
1359;DHT22;673;48.098;14.422;2022-11-20T00:21:18;0.10;99.90
1359;DHT22;673;48.098;14.422;2022-11-20T00:23:46;0.10;99.90
1359;DHT22;673;48.098;14.422;2022-11-20T00:26:15;0.20;99.90
1359;DHT22;673;48.098;14.422;2022-11-20T00:28:48;0.20;99.90
1359;DHT22;673;48.098;14.422;2022-11-20T00:31:16;0.20;99.90
1359;DHT22;673;48.098;14.422;2022-11-20T00:33:44;0.10;99.90
1359;DHT22;673;48.098;14.422;2022-11-20T00:36:13;0.30;99.90
1359;DHT22;673;48.098;14.422;2022-11-20T00:38:40;0.20;99.90
1359;DHT22;673;48.098;14.422;2022-11-20T00:41:08;0.20;99.90
1359;DHT22;673;48.098;14.422;2022-11-20T00:43:36;0.30;99.90
1359;DHT22;673;48.098;14.422;2022-11-20T00:46:06;0.20;99.90
1359;DHT22;673;48.098;14.422;2022-11-20T00:48:34;0.30;99.90
1359;DHT22;673;48.098;14.422;2022-11-20T00:51:01;0.20;99.90
1359;DHT22;673;48.098;14.422;2022-11-20T00:53:28;0.20;99.90
1359;DHT22;673;48.098;14.422;2022-11-20T00:55:56;0.30;99.90
1359;DHT22;673;48.098;14.422;2022-11-20T00:58:25;0.20;99.90
1359;DHT22;673;48.098;14.422;2022-11-20T01:01:00;0.30;99.90
1359;DHT22;673;48.098;14.422;2022-11-20T01:03:31;0.20;99.90
1359;DHT22;673;48.098;14.422;2022-11-20T01:06:00;0.10;99.90
1359;DHT22;673;48.098;14.422;2022-11-20T01:08:29;0.10;99.90
1359;DHT22;673;48.098;14.422;2022-11-20T01:10:59;0.20;99.90
1359;DHT22;673;48.098;14.422;2022-11-20T01:13:26;0.10;99.90
1359;DHT22;673;48.098;14.422;2022-11-20T01:16:08;0.10;99.90
1359;DHT22;673;48.098;14.422;2022-11-20T01:18:37;0.20;99.90
1359;DHT22;673;48.098;14.422;2022-11-20T01:21:06;0.10;99.90
1359;DHT22;673;48.098;14.422;2022-11-20T01:23:35;0.00;99.90
1359;DHT22;673;48.098;14.422;2022-11-20T01:26:03;0.10;99.90
1359;DHT22;673;48.098;14.422;2022-11-20T01:28:31;0.10;99.90
1359;DHT22;673;48.098;14.422;2022-11-20T01:30:59;0.10;99.90
1359;DHT22;673;48.098;14.422;2022-11-20T01:33:26;0.20;99.90
1359;DHT22;673;48.098;14.422;2022-11-20T01:36:03;0.10;99.90
1359;DHT22;673;48.098;14.422;2022-11-20T01:38:31;0.20;99.90
1359;DHT22;673;48.098;14.422;2022-11-20T01:40:58;0.30;99.90
1359;DHT22;673;48.098;14.422;2022-11-20T01:43:25;0.20;99.90
1359;DHT22;673;48.098;14.422;2022-11-20T01:46:13;0.30;99.90
1359;DHT22;673;48.098;14.422;2022-11-20T01:48:46;0.30;99.90
1359;DHT22;673;48.098;14.422;2022-11-20T01:51:21;0.40;99.90
1359;DHT22;673;48.098;14.422;2022-11-20T01:53:50;0.30;99.90
1359;DHT22;673;48.098;14.422;2022-11-20T01:56:18;0.40;99.90
1359;DHT22;673;48.098;14.422;2022-11-20T01:58:49;0.30;99.90
1359;DHT22;673;48.098;14.422;2022-11-20T02:01:17;0.40;99.90
1359;DHT22;673;48.098;14.422;2022-11-20T02:03:45;0.40;99.90
1359;DHT22;673;48.098;14.422;2022-11-20T02:06:18;0.30;99.90
1359;DHT22;673;48.098;14.422;2022-11-20T02:08:46;0.40;99.90
1359;DHT22;673;48.098;14.422;2022-11-20T02:11:13;0.40;99.90
1359;DHT22;673;48.098;14.422;2022-11-20T02:13:40;0.20;99.90
1359;DHT22;673;48.098;14.422;2022-11-20T02:16:15;0.10;99.90
1359;DHT22;673;48.098;14.422;2022-11-20T02:18:44;0.10;99.90
1359;DHT22;673;48.098;14.422;2022-11-20T02:21:19;0.10;99.90
1359;DHT22;673;48.098;14.422;2022-11-20T02:24:02;0.10;99.90
1359;DHT22;673;48.098;14.422;2022-11-20T02:26:31;0.10;99.90
1359;DHT22;673;48.098;14.422;2022-11-20T02:28:59;0.10;99.90
1359;DHT22;673;48.098;14.422;2022-11-20T02:31:27;0.00;99.90
1359;DHT22;673;48.098;14.422;2022-11-20T02:33:55;0.10;99.90
1359;DHT22;673;48.098;14.422;2022-11-20T02:36:24;0.20;99.90
1359;DHT22;673;48.098;14.422;2022-11-20T02:38:52;0.10;99.90
1359;DHT22;673;48.098;14.422;2022-11-20T02:41:21;0.10;99.90
1359;DHT22;673;48.098;14.422;2022-11-20T02:43:48;0.10;99.90
1359;DHT22;673;48.098;14.422;2022-11-20T02:46:15;0.10;99.90
1359;DHT22;673;48.098;14.422;2022-11-20T02:48:42;0.20;99.90
1359;DHT22;673;48.098;14.422;2022-11-20T02:51:09;0.20;99.90
1359;DHT22;673;48.098;14.422;2022-11-20T02:53:36;0.10;99.90
1359;DHT22;673;48.098;14.422;2022-11-20T02:56:03;0.10;99.90
1359;DHT22;673;48.098;14.422;2022-11-20T02:58:32;0.00;99.90
1359;DHT22;673;48.098;14.422;2022-11-20T03:00:59;0.00;99.90
1359;DHT22;673;48.098;14.422;2022-11-20T03:03:25;0.10;99.90
1359;DHT22;673;48.098;14.422;2022-11-20T03:05:52;0.10;99.90
1359;DHT22;673;48.098;14.422;2022-11-20T03:08:19;0.00;99.90
1359;DHT22;673;48.098;14.422;2022-11-20T03:10:46;0.20;99.90
1359;DHT22;673;48.098;14.422;2022-11-20T03:13:13;0.20;99.90
1359;DHT22;673;48.098;14.422;2022-11-20T03:15:42;0.20;99.90
1359;DHT22;673;48.098;14.422;2022-11-20T03:18:09;0.30;99.90
1359;DHT22;673;48.098;14.422;2022-11-20T03:20:36;0.30;99.90
1359;DHT22;673;48.098;14.422;2022-11-20T03:23:03;0.40;99.90
1359;DHT22;673;48.098;14.422;2022-11-20T03:25:29;0.30;99.90
1359;DHT22;673;48.098;14.422;2022-11-20T03:27:56;0.30;99.90
1359;DHT22;673;48.098;14.422;2022-11-20T03:30:23;0.30;99.90
1359;DHT22;673;48.098;14.422;2022-11-20T03:32:54;0.30;99.90
1359;DHT22;673;48.098;14.422;2022-11-20T03:35:21;0.30;99.90
1359;DHT22;673;48.098;14.422;2022-11-20T03:37:48;0.30;99.90
1359;DHT22;673;48.098;14.422;2022-11-20T03:40:15;0.30;99.90
1359;DHT22;673;48.098;14.422;2022-11-20T03:42:42;0.30;99.90
1359;DHT22;673;48.098;14.422;2022-11-20T03:45:12;0.30;99.90
1359;DHT22;673;48.098;14.422;2022-11-20T03:47:39;0.40;99.90
1359;DHT22;673;48.098;14.422;2022-11-20T03:50:09;0.40;99.90
1359;DHT22;673;48.098;14.422;2022-11-20T03:52:36;0.40;99.90
1359;DHT22;673;48.098;14.422;2022-11-20T03:55:04;0.50;99.90
1359;DHT22;673;48.098;14.422;2022-11-20T03:57:31;0.60;99.90
1359;DHT22;673;48.098;14.422;2022-11-20T03:59:58;0.60;99.90
1359;DHT22;673;48.098;14.422;2022-11-20T04:02:25;0.70;99.90
1359;DHT22;673;48.098;14.422;2022-11-20T04:04:52;0.70;99.90
1359;DHT22;673;48.098;14.422;2022-11-20T04:07:21;0.70;99.90
1359;DHT22;673;48.098;14.422;2022-11-20T04:09:48;0.80;99.90
1359;DHT22;673;48.098;14.422;2022-11-20T04:12:14;0.90;99.90
1359;DHT22;673;48.098;14.422;2022-11-20T04:14:41;0.80;99.90
1359;DHT22;673;48.098;14.422;2022-11-20T04:17:08;0.80;99.90
1359;DHT22;673;48.098;14.422;2022-11-20T04:19:35;0.80;99.90
1359;DHT22;673;48.098;14.422;2022-11-20T04:22:02;0.80;99.90
1359;DHT22;673;48.098;14.422;2022-11-20T04:24:31;0.70;99.90
1359;DHT22;673;48.098;14.422;2022-11-20T04:26:57;0.70;99.90
1359;DHT22;673;48.098;14.422;2022-11-20T04:29:24;0.50;99.90
1359;DHT22;673;48.098;14.422;2022-11-20T04:31:51;0.50;99.90
1359;DHT22;673;48.098;14.422;2022-11-20T04:34:18;0.50;99.90
1359;DHT22;673;48.098;14.422;2022-11-20T04:36:45;0.50;99.90
1359;DHT22;673;48.098;14.422;2022-11-20T04:39:13;0.50;99.90
1359;DHT22;673;48.098;14.422;2022-11-20T04:41:42;0.50;99.90
1359;DHT22;673;48.098;14.422;2022-11-20T04:44:09;0.60;99.90
1359;DHT22;673;48.098;14.422;2022-11-20T04:46:37;0.60;99.90
1359;DHT22;673;48.098;14.422;2022-11-20T04:49:05;0.60;99.90
1359;DHT22;673;48.098;14.422;2022-11-20T04:51:32;0.60;99.90
1359;DHT22;673;48.098;14.422;2022-11-20T04:53:59;0.70;99.90
1359;DHT22;673;48.098;14.422;2022-11-20T04:56:26;0.70;99.90
1359;DHT22;673;48.098;14.422;2022-11-20T04:58:54;0.60;99.90
1359;DHT22;673;48.098;14.422;2022-11-20T05:01:23;0.70;99.90
1359;DHT22;673;48.098;14.422;2022-11-20T05:03:51;0.70;99.90
1359;DHT22;673;48.098;14.422;2022-11-20T05:06:19;0.80;99.90
1359;DHT22;673;48.098;14.422;2022-11-20T05:08:47;0.80;99.90
1359;DHT22;673;48.098;14.422;2022-11-20T05:11:16;0.80;99.90
1359;DHT22;673;48.098;14.422;2022-11-20T05:13:44;0.80;99.90
1359;DHT22;673;48.098;14.422;2022-11-20T05:16:13;0.80;99.90
1359;DHT22;673;48.098;14.422;2022-11-20T05:18:41;0.80;99.90
1359;DHT22;673;48.098;14.422;2022-11-20T05:21:09;0.80;99.90
1359;DHT22;673;48.098;14.422;2022-11-20T05:23:36;0.80;99.90
1359;DHT22;673;48.098;14.422;2022-11-20T05:26:04;0.80;99.90
1359;DHT22;673;48.098;14.422;2022-11-20T05:28:32;0.80;99.90
1359;DHT22;673;48.098;14.422;2022-11-20T05:31:04;0.80;99.90
1359;DHT22;673;48.098;14.422;2022-11-20T05:33:34;0.70;99.90
1359;DHT22;673;48.098;14.422;2022-11-20T05:36:02;0.80;99.90
1359;DHT22;673;48.098;14.422;2022-11-20T05:38:29;0.90;99.90
1359;DHT22;673;48.098;14.422;2022-11-20T05:41:03;0.80;99.90
1359;DHT22;673;48.098;14.422;2022-11-20T05:43:32;0.90;99.90
1359;DHT22;673;48.098;14.422;2022-11-20T05:46:00;0.90;99.90
1359;DHT22;673;48.098;14.422;2022-11-20T05:48:27;0.80;99.90
1359;DHT22;673;48.098;14.422;2022-11-20T05:50:56;0.80;99.90
1359;DHT22;673;48.098;14.422;2022-11-20T05:53:23;0.70;99.90
1359;DHT22;673;48.098;14.422;2022-11-20T05:55:57;0.80;99.90
1359;DHT22;673;48.098;14.422;2022-11-20T05:58:24;0.80;99.90
1359;DHT22;673;48.098;14.422;2022-11-20T06:00:51;0.90;99.90
1359;DHT22;673;48.098;14.422;2022-11-20T06:03:18;0.90;99.90
1359;DHT22;673;48.098;14.422;2022-11-20T06:05:45;0.80;99.90
1359;DHT22;673;48.098;14.422;2022-11-20T06:08:13;0.90;99.90
1359;DHT22;673;48.098;14.422;2022-11-20T06:10:40;1.00;99.90
1359;DHT22;673;48.098;14.422;2022-11-20T06:13:07;1.00;99.90
1359;DHT22;673;48.098;14.422;2022-11-20T06:15:34;1.00;99.90
1359;DHT22;673;48.098;14.422;2022-11-20T06:18:01;1.00;99.90
1359;DHT22;673;48.098;14.422;2022-11-20T06:20:28;1.00;99.90
1359;DHT22;673;48.098;14.422;2022-11-20T06:22:54;1.10;99.90
1359;DHT22;673;48.098;14.422;2022-11-20T06:25:23;1.20;99.90
1359;DHT22;673;48.098;14.422;2022-11-20T06:27:50;1.10;99.90
1359;DHT22;673;48.098;14.422;2022-11-20T06:30:17;1.20;99.90
1359;DHT22;673;48.098;14.422;2022-11-20T06:32:44;1.20;99.90
1359;DHT22;673;48.098;14.422;2022-11-20T06:35:11;1.30;99.90
1359;DHT22;673;48.098;14.422;2022-11-20T06:37:38;1.20;99.90
1359;DHT22;673;48.098;14.422;2022-11-20T06:40:06;1.30;99.90
1359;DHT22;673;48.098;14.422;2022-11-20T06:42:34;1.20;99.90
1359;DHT22;673;48.098;14.422;2022-11-20T06:45:01;1.20;99.90
1359;DHT22;673;48.098;14.422;2022-11-20T06:47:28;1.20;99.90
1359;DHT22;673;48.098;14.422;2022-11-20T06:49:55;1.20;99.90
1359;DHT22;673;48.098;14.422;2022-11-20T06:52:22;1.10;99.90
1359;DHT22;673;48.098;14.422;2022-11-20T06:54:49;1.20;99.90
1359;DHT22;673;48.098;14.422;2022-11-20T06:57:16;1.30;99.90
1359;DHT22;673;48.098;14.422;2022-11-20T06:59:44;1.40;99.90
1359;DHT22;673;48.098;14.422;2022-11-20T07:02:11;1.40;99.90
1359;DHT22;673;48.098;14.422;2022-11-20T07:04:38;1.40;99.90
1359;DHT22;673;48.098;14.422;2022-11-20T07:07:05;1.30;99.90
1359;DHT22;673;48.098;14.422;2022-11-20T07:09:32;1.30;99.90
1359;DHT22;673;48.098;14.422;2022-11-20T07:12:00;1.30;99.90
1359;DHT22;673;48.098;14.422;2022-11-20T07:14:27;1.40;99.90
1359;DHT22;673;48.098;14.422;2022-11-20T07:16:55;1.40;99.90
1359;DHT22;673;48.098;14.422;2022-11-20T07:19:22;1.40;99.90
1359;DHT22;673;48.098;14.422;2022-11-20T07:21:49;1.50;99.90
1359;DHT22;673;48.098;14.422;2022-11-20T07:24:16;1.50;99.90
1359;DHT22;673;48.098;14.422;2022-11-20T07:26:46;1.30;99.90
1359;DHT22;673;48.098;14.422;2022-11-20T07:29:14;1.20;99.90
1359;DHT22;673;48.098;14.422;2022-11-20T07:31:42;1.20;99.90
1359;DHT22;673;48.098;14.422;2022-11-20T07:34:10;1.30;99.90
1359;DHT22;673;48.098;14.422;2022-11-20T07:36:37;1.30;99.90
1359;DHT22;673;48.098;14.422;2022-11-20T07:39:04;1.40;99.90
1359;DHT22;673;48.098;14.422;2022-11-20T07:41:31;1.50;99.90
1359;DHT22;673;48.098;14.422;2022-11-20T07:43:58;1.50;99.90
1359;DHT22;673;48.098;14.422;2022-11-20T07:46:25;1.60;99.90
1359;DHT22;673;48.098;14.422;2022-11-20T07:48:52;1.60;99.90
1359;DHT22;673;48.098;14.422;2022-11-20T07:51:20;1.60;99.90
1359;DHT22;673;48.098;14.422;2022-11-20T07:53:47;1.70;99.90
1359;DHT22;673;48.098;14.422;2022-11-20T07:56:16;1.70;99.90
1359;DHT22;673;48.098;14.422;2022-11-20T07:58:43;1.90;99.90
1359;DHT22;673;48.098;14.422;2022-11-20T08:01:10;2.00;99.90
1359;DHT22;673;48.098;14.422;2022-11-20T08:03:37;2.00;99.90
1359;DHT22;673;48.098;14.422;2022-11-20T08:06:05;2.10;99.90
1359;DHT22;673;48.098;14.422;2022-11-20T08:08:33;2.10;99.90
1359;DHT22;673;48.098;14.422;2022-11-20T08:11:00;2.10;99.90
1359;DHT22;673;48.098;14.422;2022-11-20T08:13:41;2.20;99.90
1359;DHT22;673;48.098;14.422;2022-11-20T08:16:27;2.30;99.90
1359;DHT22;673;48.098;14.422;2022-11-20T08:18:54;2.20;99.90
1359;DHT22;673;48.098;14.422;2022-11-20T08:21:21;2.10;99.90
1359;DHT22;673;48.098;14.422;2022-11-20T08:23:50;2.10;99.90
1359;DHT22;673;48.098;14.422;2022-11-20T08:26:17;2.10;99.90
1359;DHT22;673;48.098;14.422;2022-11-20T08:28:44;2.20;99.90
1359;DHT22;673;48.098;14.422;2022-11-20T08:31:12;2.10;99.90
1359;DHT22;673;48.098;14.422;2022-11-20T08:33:39;2.10;99.90
1359;DHT22;673;48.098;14.422;2022-11-20T08:36:06;2.40;99.90
1359;DHT22;673;48.098;14.422;2022-11-20T08:38:33;2.30;99.90
1359;DHT22;673;48.098;14.422;2022-11-20T08:41:03;2.10;99.90
1359;DHT22;673;48.098;14.422;2022-11-20T08:43:48;2.20;99.90
1359;DHT22;673;48.098;14.422;2022-11-20T08:46:15;2.30;99.90
1359;DHT22;673;48.098;14.422;2022-11-20T08:48:44;2.20;99.90
1359;DHT22;673;48.098;14.422;2022-11-20T08:51:11;2.10;99.90
1359;DHT22;673;48.098;14.422;2022-11-20T08:53:39;2.30;99.90
1359;DHT22;673;48.098;14.422;2022-11-20T08:56:07;2.30;99.90
1359;DHT22;673;48.098;14.422;2022-11-20T08:58:35;2.30;99.90
1359;DHT22;673;48.098;14.422;2022-11-20T09:01:02;2.40;99.90
1359;DHT22;673;48.098;14.422;2022-11-20T09:03:29;2.40;99.90
1359;DHT22;673;48.098;14.422;2022-11-20T09:06:00;2.70;99.90
1359;DHT22;673;48.098;14.422;2022-11-20T09:08:27;2.70;99.90
1359;DHT22;673;48.098;14.422;2022-11-20T09:10:55;2.70;99.90
1359;DHT22;673;48.098;14.422;2022-11-20T09:13:25;2.60;99.90
1359;DHT22;673;48.098;14.422;2022-11-20T09:15:53;2.70;99.90
1359;DHT22;673;48.098;14.422;2022-11-20T09:18:20;2.70;99.90
1359;DHT22;673;48.098;14.422;2022-11-20T09:20:48;2.90;99.90
1359;DHT22;673;48.098;14.422;2022-11-20T09:23:15;2.80;99.90
1359;DHT22;673;48.098;14.422;2022-11-20T09:25:42;2.80;99.90
1359;DHT22;673;48.098;14.422;2022-11-20T09:28:09;2.70;99.90
1359;DHT22;673;48.098;14.422;2022-11-20T09:30:38;2.80;99.90
1359;DHT22;673;48.098;14.422;2022-11-20T09:33:05;2.90;99.90
1359;DHT22;673;48.098;14.422;2022-11-20T09:35:32;2.90;99.90
1359;DHT22;673;48.098;14.422;2022-11-20T09:38:05;2.80;99.90
1359;DHT22;673;48.098;14.422;2022-11-20T09:40:38;2.60;99.90
1359;DHT22;673;48.098;14.422;2022-11-20T09:43:20;2.80;99.90
1359;DHT22;673;48.098;14.422;2022-11-20T09:46:02;2.80;99.90
1359;DHT22;673;48.098;14.422;2022-11-20T09:48:40;3.00;99.90
1359;DHT22;673;48.098;14.422;2022-11-20T09:51:16;3.10;99.90
1359;DHT22;673;48.098;14.422;2022-11-20T09:54:02;3.30;99.90
1359;DHT22;673;48.098;14.422;2022-11-20T09:56:34;3.30;99.90
1359;DHT22;673;48.098;14.422;2022-11-20T09:59:05;3.30;99.90
1359;DHT22;673;48.098;14.422;2022-11-20T10:01:36;3.30;99.90
1359;DHT22;673;48.098;14.422;2022-11-20T10:04:14;3.40;99.90
1359;DHT22;673;48.098;14.422;2022-11-20T10:06:50;3.50;99.90
1359;DHT22;673;48.098;14.422;2022-11-20T10:09:24;3.50;99.90
1359;DHT22;673;48.098;14.422;2022-11-20T10:12:05;3.60;99.90
1359;DHT22;673;48.098;14.422;2022-11-20T10:14:47;3.70;99.90
1359;DHT22;673;48.098;14.422;2022-11-20T10:17:27;3.60;99.90
1359;DHT22;673;48.098;14.422;2022-11-20T10:20:10;3.80;99.90
1359;DHT22;673;48.098;14.422;2022-11-20T10:22:50;4.30;99.90
1359;DHT22;673;48.098;14.422;2022-11-20T10:25:19;4.70;99.90
1359;DHT22;673;48.098;14.422;2022-11-20T10:28:04;4.80;99.90
1359;DHT22;673;48.098;14.422;2022-11-20T10:30:37;5.00;99.90
1359;DHT22;673;48.098;14.422;2022-11-20T10:33:13;5.20;99.90
1359;DHT22;673;48.098;14.422;2022-11-20T10:35:45;5.10;99.90
1359;DHT22;673;48.098;14.422;2022-11-20T10:38:20;5.00;99.90
1359;DHT22;673;48.098;14.422;2022-11-20T10:40:51;5.10;99.90
1359;DHT22;673;48.098;14.422;2022-11-20T10:43:23;5.20;99.90
1359;DHT22;673;48.098;14.422;2022-11-20T10:45:55;5.30;99.90
1359;DHT22;673;48.098;14.422;2022-11-20T10:48:25;5.50;99.90
1359;DHT22;673;48.098;14.422;2022-11-20T10:51:08;5.70;99.90
1359;DHT22;673;48.098;14.422;2022-11-20T10:56:35;5.80;99.90
1359;DHT22;673;48.098;14.422;2022-11-20T11:02:15;6.10;99.90
1359;DHT22;673;48.098;14.422;2022-11-20T11:04:46;6.60;99.90
1359;DHT22;673;48.098;14.422;2022-11-20T11:07:15;6.90;99.90
1359;DHT22;673;48.098;14.422;2022-11-20T11:09:46;7.10;99.90
1359;DHT22;673;48.098;14.422;2022-11-20T11:12:14;7.00;99.90
1359;DHT22;673;48.098;14.422;2022-11-20T11:14:47;7.20;99.90
1359;DHT22;673;48.098;14.422;2022-11-20T11:17:24;7.80;99.90
1359;DHT22;673;48.098;14.422;2022-11-20T11:20:07;8.30;99.90
1359;DHT22;673;48.098;14.422;2022-11-20T11:22:44;8.60;99.90
1359;DHT22;673;48.098;14.422;2022-11-20T11:25:28;8.70;99.90
1359;DHT22;673;48.098;14.422;2022-11-20T11:27:57;8.70;99.90
1359;DHT22;673;48.098;14.422;2022-11-20T11:30:26;8.40;99.90
1359;DHT22;673;48.098;14.422;2022-11-20T11:33:04;8.00;99.90
1359;DHT22;673;48.098;14.422;2022-11-20T11:35:33;7.50;99.90
1359;DHT22;673;48.098;14.422;2022-11-20T11:38:07;7.10;99.90
1359;DHT22;673;48.098;14.422;2022-11-20T11:40:39;7.10;99.90
1359;DHT22;673;48.098;14.422;2022-11-20T11:43:21;7.10;99.90
1359;DHT22;673;48.098;14.422;2022-11-20T11:46:30;7.10;99.90
1359;DHT22;673;48.098;14.422;2022-11-20T11:48:59;7.20;99.90
1359;DHT22;673;48.098;14.422;2022-11-20T11:51:34;7.20;99.90
1359;DHT22;673;48.098;14.422;2022-11-20T11:54:04;7.20;99.90
1359;DHT22;673;48.098;14.422;2022-11-20T11:56:33;7.20;99.90
1359;DHT22;673;48.098;14.422;2022-11-20T11:59:05;7.20;99.90
1359;DHT22;673;48.098;14.422;2022-11-20T12:01:40;7.30;99.90
1359;DHT22;673;48.098;14.422;2022-11-20T12:04:16;7.30;99.90
1359;DHT22;673;48.098;14.422;2022-11-20T12:06:47;7.40;99.90
1359;DHT22;673;48.098;14.422;2022-11-20T12:09:16;7.20;99.90
1359;DHT22;673;48.098;14.422;2022-11-20T12:11:49;7.30;99.90
1359;DHT22;673;48.098;14.422;2022-11-20T12:14:21;7.40;99.90
1359;DHT22;673;48.098;14.422;2022-11-20T12:16:52;7.50;99.90
1359;DHT22;673;48.098;14.422;2022-11-20T12:19:21;7.50;99.90
1359;DHT22;673;48.098;14.422;2022-11-20T12:21:58;7.60;99.90
1359;DHT22;673;48.098;14.422;2022-11-20T12:24:42;7.40;99.90
1359;DHT22;673;48.098;14.422;2022-11-20T12:30:15;7.10;99.90
1359;DHT22;673;48.098;14.422;2022-11-20T12:33:05;7.00;99.90
1359;DHT22;673;48.098;14.422;2022-11-20T12:35:52;7.00;99.90
1359;DHT22;673;48.098;14.422;2022-11-20T12:38:45;6.90;99.90
1359;DHT22;673;48.098;14.422;2022-11-20T12:41:24;6.70;99.90
1359;DHT22;673;48.098;14.422;2022-11-20T12:44:19;6.50;99.90
1359;DHT22;673;48.098;14.422;2022-11-20T12:47:14;6.30;99.90
1359;DHT22;673;48.098;14.422;2022-11-20T12:49:49;6.00;99.90
1359;DHT22;673;48.098;14.422;2022-11-20T12:52:27;5.90;99.90
1359;DHT22;673;48.098;14.422;2022-11-20T12:55:16;5.90;99.90
1359;DHT22;673;48.098;14.422;2022-11-20T12:57:50;5.90;99.90
1359;DHT22;673;48.098;14.422;2022-11-20T13:00:21;5.90;99.90
1359;DHT22;673;48.098;14.422;2022-11-20T13:03:06;6.00;99.90
1359;DHT22;673;48.098;14.422;2022-11-20T13:05:39;6.10;99.90
1359;DHT22;673;48.098;14.422;2022-11-20T13:08:16;6.20;99.90
1359;DHT22;673;48.098;14.422;2022-11-20T13:10:50;6.30;99.90
1359;DHT22;673;48.098;14.422;2022-11-20T13:13:24;6.40;99.90
1359;DHT22;673;48.098;14.422;2022-11-20T13:15:55;6.60;99.90
1359;DHT22;673;48.098;14.422;2022-11-20T13:18:24;6.60;99.90
1359;DHT22;673;48.098;14.422;2022-11-20T13:20:51;6.70;99.90
1359;DHT22;673;48.098;14.422;2022-11-20T13:23:25;6.80;99.90
1359;DHT22;673;48.098;14.422;2022-11-20T13:26:05;6.80;99.90
1359;DHT22;673;48.098;14.422;2022-11-20T13:28:33;6.80;99.90
1359;DHT22;673;48.098;14.422;2022-11-20T13:31:00;6.80;99.90
1359;DHT22;673;48.098;14.422;2022-11-20T13:33:30;6.80;99.90
1359;DHT22;673;48.098;14.422;2022-11-20T13:36:00;6.60;99.90
1359;DHT22;673;48.098;14.422;2022-11-20T13:38:28;6.70;99.90
1359;DHT22;673;48.098;14.422;2022-11-20T13:40:56;6.40;99.90
1359;DHT22;673;48.098;14.422;2022-11-20T13:43:33;6.30;99.90
1359;DHT22;673;48.098;14.422;2022-11-20T13:46:03;6.00;99.90
1359;DHT22;673;48.098;14.422;2022-11-20T13:48:32;5.90;99.90
1359;DHT22;673;48.098;14.422;2022-11-20T13:51:15;5.90;99.90
1359;DHT22;673;48.098;14.422;2022-11-20T13:54:04;5.70;99.90
1359;DHT22;673;48.098;14.422;2022-11-20T13:56:47;5.50;99.90
1359;DHT22;673;48.098;14.422;2022-11-20T13:59:28;5.50;99.90
1359;DHT22;673;48.098;14.422;2022-11-20T14:02:00;5.60;99.90
1359;DHT22;673;48.098;14.422;2022-11-20T14:04:31;5.60;99.90
1359;DHT22;673;48.098;14.422;2022-11-20T14:06:59;5.60;99.90
1359;DHT22;673;48.098;14.422;2022-11-20T14:09:28;5.60;99.90
1359;DHT22;673;48.098;14.422;2022-11-20T14:11:55;5.70;99.90
1359;DHT22;673;48.098;14.422;2022-11-20T14:14:25;5.70;99.90
1359;DHT22;673;48.098;14.422;2022-11-20T14:16:53;5.80;99.90
1359;DHT22;673;48.098;14.422;2022-11-20T14:19:31;5.80;99.90
1359;DHT22;673;48.098;14.422;2022-11-20T14:22:14;5.80;99.90
1359;DHT22;673;48.098;14.422;2022-11-20T14:24:43;5.70;99.90
1359;DHT22;673;48.098;14.422;2022-11-20T14:27:13;5.80;99.90
1359;DHT22;673;48.098;14.422;2022-11-20T14:29:47;5.70;99.90
1359;DHT22;673;48.098;14.422;2022-11-20T14:32:17;5.70;99.90
1359;DHT22;673;48.098;14.422;2022-11-20T14:34:48;5.70;99.90
1359;DHT22;673;48.098;14.422;2022-11-20T14:37:19;5.60;99.90
1359;DHT22;673;48.098;14.422;2022-11-20T14:39:50;5.50;99.90
1359;DHT22;673;48.098;14.422;2022-11-20T14:42:19;5.50;99.90
1359;DHT22;673;48.098;14.422;2022-11-20T14:44:50;5.40;99.90
1359;DHT22;673;48.098;14.422;2022-11-20T14:47:20;5.20;99.90
1359;DHT22;673;48.098;14.422;2022-11-20T14:49:49;5.20;99.90
1359;DHT22;673;48.098;14.422;2022-11-20T14:52:19;5.20;99.90
1359;DHT22;673;48.098;14.422;2022-11-20T14:54:47;5.20;99.90
1359;DHT22;673;48.098;14.422;2022-11-20T14:57:24;5.10;99.90
1359;DHT22;673;48.098;14.422;2022-11-20T15:00:07;5.20;99.90
1359;DHT22;673;48.098;14.422;2022-11-20T15:02:45;5.10;99.90
1359;DHT22;673;48.098;14.422;2022-11-20T15:05:13;5.20;99.90
1359;DHT22;673;48.098;14.422;2022-11-20T15:07:44;5.20;99.90
1359;DHT22;673;48.098;14.422;2022-11-20T15:10:13;5.30;99.90
1359;DHT22;673;48.098;14.422;2022-11-20T15:12:48;5.20;99.90
1359;DHT22;673;48.098;14.422;2022-11-20T15:15:20;5.10;99.90
1359;DHT22;673;48.098;14.422;2022-11-20T15:17:47;5.10;99.90
1359;DHT22;673;48.098;14.422;2022-11-20T15:20:16;5.10;99.90
1359;DHT22;673;48.098;14.422;2022-11-20T15:22:43;5.10;99.90
1359;DHT22;673;48.098;14.422;2022-11-20T15:25:12;5.10;99.90
1359;DHT22;673;48.098;14.422;2022-11-20T15:27:40;5.10;99.90
1359;DHT22;673;48.098;14.422;2022-11-20T15:30:13;5.00;99.90
1359;DHT22;673;48.098;14.422;2022-11-20T15:32:43;5.00;99.90
1359;DHT22;673;48.098;14.422;2022-11-20T15:35:11;5.10;99.90
1359;DHT22;673;48.098;14.422;2022-11-20T15:37:39;5.10;99.90
1359;DHT22;673;48.098;14.422;2022-11-20T15:40:08;5.10;99.90
1359;DHT22;673;48.098;14.422;2022-11-20T15:42:35;5.00;99.90
1359;DHT22;673;48.098;14.422;2022-11-20T15:45:02;5.00;99.90
1359;DHT22;673;48.098;14.422;2022-11-20T15:47:32;5.00;99.90
1359;DHT22;673;48.098;14.422;2022-11-20T15:50:01;4.90;99.90
1359;DHT22;673;48.098;14.422;2022-11-20T15:52:28;5.00;99.90
1359;DHT22;673;48.098;14.422;2022-11-20T15:54:55;5.10;99.90
1359;DHT22;673;48.098;14.422;2022-11-20T15:57:22;5.20;99.90
1359;DHT22;673;48.098;14.422;2022-11-20T15:59:49;5.10;99.90
1359;DHT22;673;48.098;14.422;2022-11-20T16:02:16;5.10;99.90
1359;DHT22;673;48.098;14.422;2022-11-20T16:04:43;5.20;99.90
1359;DHT22;673;48.098;14.422;2022-11-20T16:07:12;5.20;99.90
1359;DHT22;673;48.098;14.422;2022-11-20T16:09:39;5.20;99.90
1359;DHT22;673;48.098;14.422;2022-11-20T16:12:08;5.20;99.90
1359;DHT22;673;48.098;14.422;2022-11-20T16:14:55;5.40;99.90
1359;DHT22;673;48.098;14.422;2022-11-20T16:17:39;5.80;99.90
1359;DHT22;673;48.098;14.422;2022-11-20T16:20:11;6.00;99.90
1359;DHT22;673;48.098;14.422;2022-11-20T16:22:40;6.00;99.90
1359;DHT22;673;48.098;14.422;2022-11-20T16:25:07;6.00;99.90
1359;DHT22;673;48.098;14.422;2022-11-20T16:27:34;5.90;99.90
1359;DHT22;673;48.098;14.422;2022-11-20T16:30:01;5.90;99.90
1359;DHT22;673;48.098;14.422;2022-11-20T16:32:28;5.90;99.90
1359;DHT22;673;48.098;14.422;2022-11-20T16:34:55;5.90;99.90
1359;DHT22;673;48.098;14.422;2022-11-20T16:37:22;5.90;99.90
1359;DHT22;673;48.098;14.422;2022-11-20T16:39:51;5.90;99.90
1359;DHT22;673;48.098;14.422;2022-11-20T16:42:18;5.90;99.90
1359;DHT22;673;48.098;14.422;2022-11-20T16:44:45;5.90;99.90
1359;DHT22;673;48.098;14.422;2022-11-20T16:47:13;5.90;99.90